LDLO/LSZ METAR and TAF weather

Enter ICAO airport designator
Station Type Date Time Source
LDLO METAR 2019/04/21 14:00 UTC NOAA

LDLO 211400Z 16008KT CAVOK 18/07 Q1021


Station Type Date Time Source
LDLO Decoded METAR 2019/04/21 14:00 UTC NOAA

Losinj Island, Croatia (LDLO) 44-33-57N 014-23-35E
Apr 21, 2019 - 10:00 AM EDT / 2019.04.21 1400 UTC
Wind: from the SSE (160 degrees) at 9 MPH (8 KT):0
Visibility: greater than 7 mile(s):0
Temperature: 64 F (18 C)
Dew Point: 44 F (7 C)
Relative Humidity: 48%
Pressure (altimeter): 30.15 in. Hg (1021 hPa)
ob: LDLO 211400Z 16008KT CAVOK 18/07 Q1021
cycle: 14

Station Type Date Time Source
LDLO TAF 2019/04/21 15:03 UTC NOAA

TAF
AMD LDLO 211500Z 2115/2212 CNL

Example: see airport list